Time;durP1;ratioP1;P1;durP2;ratioP2;P2;SDS_P1;SDS_P2;PMS_P1;PMS_P2;Temp;Humidity;BMP_temperature;BMP_pressure;BME280_temperature;BME280_humidity;BME280_pressure;Samples;Min_cycle;Max_cycle;Signal;HPM_P1;HPM_P2
2021/08/29 00:01:49;;;;;;;2.80;2.50;;;20.90;70.80;;;;;;5014079;28;20032;-65
2021/08/29 00:04:14;;;;;;;2.90;2.60;;;20.90;70.80;;;;;;5028620;28;20018;-65
2021/08/29 00:06:40;;;;;;;3.67;2.97;;;20.90;71.00;;;;;;5013742;28;20036;-65
2021/08/29 00:09:06;;;;;;;2.85;2.45;;;20.90;70.90;;;;;;5014054;28;20028;-65
2021/08/29 00:11:32;;;;;;;3.00;2.70;;;20.90;71.00;;;;;;5013964;28;20026;-65
2021/08/29 00:13:58;;;;;;;2.83;2.55;;;20.90;70.90;;;;;;5013944;28;20029;-65
2021/08/29 00:16:23;;;;;;;3.13;2.35;;;20.90;70.80;;;;;;5013818;28;20036;-65
2021/08/29 00:18:49;;;;;;;2.75;2.55;;;20.90;71.10;;;;;;5013839;28;20363;-65
2021/08/29 00:21:15;;;;;;;3.00;2.70;;;20.80;71.00;;;;;;5012699;28;20034;-65
2021/08/29 00:23:41;;;;;;;2.78;2.55;;;20.80;71.00;;;;;;5014077;28;20037;-65
2021/08/29 00:26:06;;;;;;;3.50;2.65;;;20.80;71.20;;;;;;5013742;28;20026;-65
2021/08/29 00:28:32;;;;;;;2.60;2.40;;;20.80;71.30;;;;;;5014007;28;20026;-65
2021/08/29 00:30:58;;;;;;;3.45;2.65;;;20.80;71.20;;;;;;5015358;28;20049;-65
2021/08/29 00:33:23;;;;;;;2.95;2.65;;;20.80;71.10;;;;;;5032574;28;20034;-65
2021/08/29 00:35:49;;;;;;;2.65;2.45;;;20.80;71.70;;;;;;5028265;28;20390;-65
2021/08/29 00:38:15;;;;;;;2.97;2.67;;;20.70;70.90;;;;;;5013451;28;20022;-65
2021/08/29 00:40:40;;;;;;;2.85;2.65;;;20.80;71.10;;;;;;5013786;28;20354;-65
2021/08/29 00:43:06;;;;;;;2.90;2.67;;;20.70;71.10;;;;;;5013549;28;20033;-65
2021/08/29 00:45:34;;;;;;;2.67;2.47;;;20.70;71.70;;;;;;5013204;28;20029;-65
2021/08/29 00:48:00;;;;;;;3.13;2.58;;;20.70;71.00;;;;;;5013532;28;20359;-65
2021/08/29 00:50:27;;;;;;;3.20;2.80;;;20.70;71.20;;;;;;4996090;28;20164;-65
2021/08/29 00:52:53;;;;;;;2.90;2.70;;;20.70;71.20;;;;;;5012883;28;20072;-65
2021/08/29 00:55:19;;;;;;;2.67;2.47;;;20.70;71.30;;;;;;5013401;28;20477;-65
2021/08/29 00:57:45;;;;;;;2.70;2.50;;;20.70;71.40;;;;;;5013648;28;20040;-65
2021/08/29 01:00:12;;;;;;;4.18;2.75;;;20.70;71.50;;;;;;5013280;28;20037;-65
2021/08/29 01:02:39;;;;;;;2.92;2.60;;;20.70;71.50;;;;;;5021777;28;20032;-65
2021/08/29 01:05:11;;;;;;;3.53;2.80;;;20.70;71.40;;;;;;5032938;28;20253;-65
2021/08/29 01:07:56;;;;;;;3.83;2.63;;;20.70;71.40;;;;;;5019317;28;20041;-65
2021/08/29 01:10:30;;;;;;;3.72;2.70;;;20.70;71.50;;;;;;5013491;28;20030;-65
2021/08/29 01:12:59;;;;;;;3.10;2.80;;;20.70;71.40;;;;;;5013446;28;20108;-65
2021/08/29 01:15:28;;;;;;;3.53;2.78;;;20.70;71.20;;;;;;5013143;28;20061;-65
2021/08/29 01:17:57;;;;;;;2.78;2.53;;;20.70;71.10;;;;;;5013115;28;20021;-65
2021/08/29 01:20:37;;;;;;;2.58;2.38;;;20.70;71.30;;;;;;5013059;28;20022;-65
2021/08/29 01:23:05;;;;;;;3.28;2.50;;;20.70;71.40;;;;;;5012984;28;20092;-65
2021/08/29 01:25:35;;;;;;;2.95;2.60;;;20.60;71.50;;;;;;5013030;28;20026;-65
2021/08/29 01:28:14;;;;;;;3.42;2.63;;;20.60;71.70;;;;;;5013673;28;20049;-65
2021/08/29 01:30:42;;;;;;;2.67;2.47;;;20.60;71.70;;;;;;5012990;28;20054;-65
2021/08/29 01:33:08;;;;;;;2.50;2.30;;;20.70;71.70;;;;;;5025744;28;20113;-65
2021/08/29 01:35:34;;;;;;;3.65;2.40;;;20.60;71.60;;;;;;5032618;28;20072;-65
2021/08/29 01:38:02;;;;;;;3.10;2.63;;;20.70;71.70;;;;;;5033879;28;20026;-65
2021/08/29 01:40:28;;;;;;;3.35;2.20;;;20.70;72.60;;;;;;5019558;28;20069;-65
2021/08/29 01:42:54;;;;;;;2.53;2.28;;;20.70;72.00;;;;;;5016947;28;20014;-65
2021/08/29 01:45:20;;;;;;;2.80;2.60;;;20.70;71.70;;;;;;5016680;28;20378;-65
2021/08/29 01:47:46;;;;;;;3.55;2.40;;;20.70;71.50;;;;;;5016024;28;20109;-65
2021/08/29 01:50:13;;;;;;;4.22;2.78;;;20.70;71.50;;;;;;5016510;28;20453;-65
2021/08/29 01:52:39;;;;;;;2.80;2.60;;;20.70;71.40;;;;;;5016548;28;20045;-65
2021/08/29 01:55:06;;;;;;;3.20;2.67;;;20.60;71.40;;;;;;5015940;28;20033;-65
2021/08/29 01:57:32;;;;;;;3.90;2.83;;;20.60;71.20;;;;;;5016437;28;20026;-65
2021/08/29 01:59:57;;;;;;;4.03;2.72;;;20.60;71.30;;;;;;5016472;28;20030;-65
2021/08/29 02:02:23;;;;;;;4.25;2.90;;;20.60;71.50;;;;;;5018506;28;20080;-65
2021/08/29 02:04:49;;;;;;;2.70;2.50;;;20.60;71.60;;;;;;5004890;28;20038;-65
2021/08/29 02:07:31;;;;;;;2.75;2.53;;;20.50;71.50;;;;;;5018329;28;20030;-65
2021/08/29 02:10:04;;;;;;;3.17;2.70;;;20.50;71.50;;;;;;5036363;28;20032;-65
2021/08/29 02:12:36;;;;;;;2.50;2.30;;;20.50;71.60;;;;;;5015657;28;20037;-65
2021/08/29 02:15:08;;;;;;;2.63;2.42;;;20.50;71.80;;;;;;5016188;28;20026;-65
2021/08/29 02:17:36;;;;;;;4.03;2.20;;;20.50;71.90;;;;;;5016298;28;20026;-65
2021/08/29 02:20:06;;;;;;;2.90;2.60;;;20.50;72.20;;;;;;5015991;28;20041;-65
2021/08/29 02:22:34;;;;;;;2.80;2.60;;;20.40;71.60;;;;;;5015906;28;20030;-65
2021/08/29 02:25:03;;;;;;;3.10;2.80;;;20.40;71.90;;;;;;5015956;28;20305;-65
2021/08/29 02:27:29;;;;;;;2.75;2.55;;;20.40;72.20;;;;;;5015311;28;20036;-65
2021/08/29 02:29:55;;;;;;;2.90;2.65;;;20.40;72.30;;;;;;5015842;28;20486;-65
2021/08/29 02:32:21;;;;;;;2.70;2.50;;;20.40;72.10;;;;;;5023190;28;20046;-65
2021/08/29 02:34:48;;;;;;;3.60;2.92;;;20.40;72.20;;;;;;5035564;28;20040;-65
2021/08/29 02:37:14;;;;;;;3.00;2.70;;;20.40;72.00;;;;;;5035464;28;20061;-65
2021/08/29 02:39:41;;;;;;;2.55;2.35;;;20.40;71.80;;;;;;5035410;28;20065;-65
2021/08/29 02:42:08;;;;;;;2.90;2.38;;;20.30;71.90;;;;;;5031062;28;20030;-65
2021/08/29 02:44:37;;;;;;;2.60;2.40;;;20.30;72.00;;;;;;5015508;28;20025;-65
2021/08/29 02:47:04;;;;;;;2.95;2.67;;;20.30;71.90;;;;;;5015316;28;20026;-65
2021/08/29 02:49:30;;;;;;;3.60;2.60;;;20.30;71.90;;;;;;5014217;28;20105;-65
2021/08/29 02:51:56;;;;;;;2.90;2.42;;;20.30;71.80;;;;;;5015504;28;20026;-65
2021/08/29 02:54:22;;;;;;;2.60;2.40;;;20.30;72.10;;;;;;5015450;28;20038;-65
2021/08/29 02:56:49;;;;;;;2.40;2.20;;;20.20;72.10;;;;;;5015127;28;20038;-65
2021/08/29 02:59:16;;;;;;;3.63;2.60;;;20.20;72.00;;;;;;5014604;28;20044;-65
2021/08/29 03:01:43;;;;;;;3.08;2.78;;;20.20;71.90;;;;;;5018667;28;20036;-65
2021/08/29 03:04:09;;;;;;;2.75;2.55;;;20.20;72.00;;;;;;5034766;28;20111;-65
2021/08/29 03:06:35;;;;;;;3.80;2.75;;;20.20;71.90;;;;;;5034929;28;20025;-65
2021/08/29 03:09:01;;;;;;;3.03;2.72;;;20.20;71.90;;;;;;5019071;28;20470;-65
2021/08/29 03:11:27;;;;;;;2.90;2.60;;;20.20;71.80;;;;;;5015145;28;20080;-65
2021/08/29 03:13:53;;;;;;;3.35;2.78;;;20.20;71.90;;;;;;5014620;28;20041;-65
2021/08/29 03:16:18;;;;;;;3.05;2.65;;;20.20;72.00;;;;;;5014856;28;20072;-65
2021/08/29 03:18:46;;;;;;;2.97;2.70;;;20.10;72.20;;;;;;5014930;28;20544;-65
2021/08/29 03:21:12;;;;;;;4.53;2.63;;;20.10;72.40;;;;;;5014854;28;20055;-65
2021/08/29 03:23:38;;;;;;;2.65;2.45;;;20.10;72.30;;;;;;5014840;28;20022;-65
2021/08/29 03:26:04;;;;;;;2.70;2.50;;;20.10;72.60;;;;;;5014803;28;20033;-65
2021/08/29 03:28:30;;;;;;;2.90;2.60;;;20.20;72.60;;;;;;5014781;28;20032;-65
2021/08/29 03:30:56;;;;;;;2.47;2.28;;;20.20;72.70;;;;;;5013896;28;20486;-65
2021/08/29 03:33:24;;;;;;;2.63;2.42;;;20.20;72.90;;;;;;5033322;28;20025;-65
2021/08/29 03:35:54;;;;;;;2.72;2.53;;;20.20;73.10;;;;;;5034178;28;20029;-65
2021/08/29 03:38:22;;;;;;;2.90;2.70;;;20.30;73.20;;;;;;5034390;28;20068;-65
2021/08/29 03:40:50;;;;;;;4.18;2.65;;;20.30;72.80;;;;;;5034092;28;20083;-65
2021/08/29 03:43:16;;;;;;;3.22;2.47;;;20.30;72.80;;;;;;5034231;28;20021;-65
2021/08/29 03:45:43;;;;;;;3.10;2.45;;;20.30;72.70;;;;;;5009206;28;20026;-65
2021/08/29 03:48:10;;;;;;;4.38;2.83;;;20.40;72.70;;;;;;5013715;28;20030;-65
2021/08/29 03:50:36;;;;;;;3.40;2.95;;;20.40;72.80;;;;;;5014488;28;20080;-65
2021/08/29 03:53:03;;;;;;;2.60;2.40;;;20.40;72.90;;;;;;5014347;28;20018;-65
2021/08/29 03:55:29;;;;;;;3.30;2.90;;;20.50;72.50;;;;;;5014092;28;20033;-65
2021/08/29 03:57:56;;;;;;;3.55;2.72;;;20.50;72.50;;;;;;5025306;28;20025;-65
2021/08/29 04:00:24;;;;;;;3.17;2.67;;;20.50;72.50;;;;;;5033633;28;20025;-65
2021/08/29 04:02:50;;;;;;;3.13;2.80;;;20.60;72.60;;;;;;5015370;28;20040;-65
2021/08/29 04:05:15;;;;;;;3.17;2.88;;;20.60;72.70;;;;;;5029100;28;20025;-65
2021/08/29 04:07:43;;;;;;;3.28;2.97;;;20.70;72.50;;;;;;5019768;28;20021;-65
2021/08/29 04:10:10;;;;;;;3.30;2.85;;;20.70;72.00;;;;;;5033844;28;20029;-65
2021/08/29 04:12:39;;;;;;;2.90;2.63;;;20.80;72.00;;;;;;5030874;28;20026;-65
2021/08/29 04:15:06;;;;;;;3.38;2.70;;;20.80;72.10;;;;;;5016546;28;20022;-65
2021/08/29 04:17:33;;;;;;;2.83;2.63;;;20.80;72.40;;;;;;5013250;28;20112;-65
2021/08/29 04:20:00;;;;;;;3.25;2.85;;;20.90;72.10;;;;;;5014113;28;20110;-65
2021/08/29 04:22:26;;;;;;;3.33;2.90;;;20.90;71.80;;;;;;5013861;28;20045;-65
2021/08/29 04:24:52;;;;;;;3.70;3.08;;;21.00;71.90;;;;;;5013811;28;20026;-65
2021/08/29 04:27:17;;;;;;;3.75;3.38;;;21.00;72.00;;;;;;5019769;28;20172;-65
2021/08/29 04:29:43;;;;;;;3.05;2.75;;;21.00;71.80;;;;;;5033721;28;20026;-65
2021/08/29 04:32:11;;;;;;;3.72;2.90;;;21.10;71.70;;;;;;5032953;28;20128;-65
2021/08/29 04:34:37;;;;;;;3.25;2.95;;;21.20;71.50;;;;;;5013387;28;20040;-65
2021/08/29 04:37:06;;;;;;;3.58;3.03;;;21.20;71.40;;;;;;5013875;28;20040;-65
2021/08/29 04:39:36;;;;;;;3.33;2.90;;;21.30;71.40;;;;;;5013853;28;20034;-65
2021/08/29 04:42:02;;;;;;;3.75;3.00;;;21.40;71.20;;;;;;5013593;28;20147;-65
2021/08/29 04:44:27;;;;;;;3.08;2.72;;;21.50;71.20;;;;;;5013540;28;20076;-65
2021/08/29 04:46:54;;;;;;;3.35;3.05;;;21.60;70.80;;;;;;5012353;28;20466;-65
2021/08/29 04:49:19;;;;;;;3.47;3.10;;;21.70;70.60;;;;;;5011092;28;20029;-65
2021/08/29 04:51:45;;;;;;;3.40;3.00;;;21.70;70.80;;;;;;5011861;28;20033;-65
2021/08/29 04:54:10;;;;;;;3.85;3.40;;;21.70;70.60;;;;;;5012208;28;20073;-65
2021/08/29 04:56:36;;;;;;;3.28;2.97;;;21.70;70.60;;;;;;5015153;28;20056;-65
2021/08/29 04:59:02;;;;;;;3.40;3.10;;;21.80;70.40;;;;;;5032273;28;20026;-65
2021/08/29 05:01:30;;;;;;;5.47;3.20;;;21.80;70.40;;;;;;5032296;28;20021;-65
2021/08/29 05:03:59;;;;;;;3.63;3.10;;;21.90;70.20;;;;;;5031586;28;20021;-65
2021/08/29 05:06:26;;;;;;;5.00;3.60;;;21.90;70.10;;;;;;5012842;28;20061;-65
2021/08/29 05:08:52;;;;;;;4.25;3.35;;;22.00;69.90;;;;;;5016636;28;20026;-65
2021/08/29 05:11:18;;;;;;;3.65;3.25;;;22.10;69.80;;;;;;5013654;28;20409;-65
2021/08/29 05:13:44;;;;;;;4.47;3.50;;;22.20;69.60;;;;;;5015290;28;20026;-65
2021/08/29 05:16:09;;;;;;;4.97;3.15;;;22.30;69.40;;;;;;5017296;28;20112;-65
2021/08/29 05:18:35;;;;;;;3.58;3.15;;;22.30;69.30;;;;;;5017291;28;20101;-65
2021/08/29 05:21:01;;;;;;;4.65;3.63;;;22.40;69.10;;;;;;5016431;28;20076;-65
2021/08/29 05:23:26;;;;;;;4.35;3.42;;;22.50;68.60;;;;;;5017276;28;20500;-65
2021/08/29 05:25:52;;;;;;;4.13;3.50;;;22.60;68.70;;;;;;5016996;28;20037;-65
2021/08/29 05:28:18;;;;;;;4.18;3.33;;;22.80;68.60;;;;;;5017619;28;20052;-65
2021/08/29 05:30:44;;;;;;;5.95;3.50;;;23.00;68.20;;;;;;5016844;28;20022;-65
2021/08/29 05:33:10;;;;;;;3.80;3.22;;;23.10;68.00;;;;;;5016907;28;20359;-65
2021/08/29 05:35:35;;;;;;;3.90;3.40;;;23.20;67.80;;;;;;5016576;28;20497;-65
2021/08/29 05:38:01;;;;;;;3.72;3.15;;;23.30;67.50;;;;;;5016521;28;20022;-65
2021/08/29 05:40:27;;;;;;;4.00;3.28;;;23.30;67.10;;;;;;5016984;28;20105;-65
2021/08/29 05:42:52;;;;;;;3.70;2.95;;;23.30;67.10;;;;;;5016790;28;20028;-65
2021/08/29 05:45:18;;;;;;;3.85;3.45;;;23.40;66.70;;;;;;5017009;28;20190;-65
2021/08/29 05:47:44;;;;;;;3.92;3.40;;;23.40;66.60;;;;;;5016912;28;20076;-65
2021/08/29 05:50:09;;;;;;;4.00;3.40;;;23.50;66.80;;;;;;5016044;28;20029;-65
2021/08/29 05:52:35;;;;;;;4.10;3.70;;;23.60;66.90;;;;;;5016054;28;20121;-65
2021/08/29 05:55:00;;;;;;;3.80;3.40;;;23.60;66.30;;;;;;5016662;28;20029;-65
2021/08/29 05:57:26;;;;;;;4.78;3.47;;;23.60;66.40;;;;;;5024602;28;20068;-65
2021/08/29 05:59:52;;;;;;;4.13;3.50;;;23.60;66.30;;;;;;5036224;28;20080;-65
2021/08/29 06:02:17;;;;;;;3.15;2.85;;;23.60;66.30;;;;;;5036165;28;20030;-65
2021/08/29 06:04:43;;;;;;;3.75;3.30;;;23.60;66.30;;;;;;5036033;28;20433;-65
2021/08/29 06:07:09;;;;;;;3.78;3.22;;;23.60;66.50;;;;;;5034584;28;20048;-65
2021/08/29 06:09:35;;;;;;;3.60;3.15;;;23.60;66.80;;;;;;5015990;28;20033;-65
2021/08/29 06:12:02;;;;;;;3.80;3.35;;;23.60;66.70;;;;;;5016186;28;20072;-65
2021/08/29 06:14:27;;;;;;;3.97;3.10;;;23.70;66.70;;;;;;5016473;28;20161;-65
2021/08/29 06:16:53;;;;;;;3.17;2.88;;;23.70;66.60;;;;;;5016156;28;20490;-65
2021/08/29 06:19:19;;;;;;;3.95;3.53;;;23.70;66.60;;;;;;5016224;28;20034;-65
2021/08/29 06:21:44;;;;;;;4.70;3.72;;;23.80;66.70;;;;;;5016066;28;20038;-65
2021/08/29 06:24:10;;;;;;;4.32;3.25;;;23.80;66.90;;;;;;5015131;28;20140;-65
2021/08/29 06:26:35;;;;;;;5.28;4.32;;;23.80;66.90;;;;;;5018148;28;20026;-65
2021/08/29 06:29:01;;;;;;;4.40;3.95;;;23.80;67.00;;;;;;5035619;28;20496;-65
2021/08/29 06:31:27;;;;;;;4.45;4.00;;;23.80;66.90;;;;;;5035453;28;20072;-65
2021/08/29 06:33:52;;;;;;;4.97;4.13;;;23.90;67.00;;;;;;5035561;28;20030;-65
2021/08/29 06:36:18;;;;;;;4.85;4.28;;;23.90;67.10;;;;;;5035452;28;20052;-65
2021/08/29 06:38:44;;;;;;;5.28;4.25;;;23.90;67.10;;;;;;5034121;28;20033;-65
2021/08/29 06:41:09;;;;;;;5.35;4.57;;;24.00;67.10;;;;;;5015328;28;20030;-65
2021/08/29 06:43:35;;;;;;;4.68;4.10;;;24.10;67.10;;;;;;5015715;28;20097;-65
2021/08/29 06:46:01;;;;;;;6.40;4.57;;;24.10;66.90;;;;;;5015768;28;20409;-65
2021/08/29 06:48:26;;;;;;;6.85;4.50;;;24.10;66.90;;;;;;5015619;28;20526;-65
2021/08/29 06:50:52;;;;;;;5.97;4.68;;;24.10;66.90;;;;;;5015471;28;20061;-65
2021/08/29 06:53:17;;;;;;;5.70;4.55;;;24.20;66.80;;;;;;5015499;28;20073;-65
2021/08/29 06:55:43;;;;;;;5.32;4.82;;;24.20;67.10;;;;;;5014920;28;20026;-65
2021/08/29 06:58:09;;;;;;;4.82;4.13;;;24.20;66.90;;;;;;5031035;28;20029;-65
2021/08/29 07:00:34;;;;;;;7.43;5.20;;;24.20;66.70;;;;;;5035072;28;20091;-65
2021/08/29 07:03:00;;;;;;;6.55;4.78;;;24.20;66.80;;;;;;5030082;28;20036;-65
2021/08/29 07:05:26;;;;;;;5.05;4.55;;;24.30;66.90;;;;;;5023477;28;20025;-65
2021/08/29 07:07:52;;;;;;;5.60;4.70;;;24.30;67.10;;;;;;5034862;28;20021;-65
2021/08/29 07:10:18;;;;;;;6.75;4.65;;;24.30;67.10;;;;;;5017116;28;20093;-65
2021/08/29 07:12:44;;;;;;;5.70;5.10;;;24.30;67.10;;;;;;5014856;28;20532;-65
2021/08/29 07:15:10;;;;;;;6.13;5.35;;;24.30;67.20;;;;;;5015401;28;20033;-65
2021/08/29 07:17:36;;;;;;;6.10;5.40;;;24.40;67.30;;;;;;5014964;28;20041;-65
2021/08/29 07:20:03;;;;;;;5.35;4.85;;;24.50;67.50;;;;;;5014997;28;20030;-65
2021/08/29 07:22:28;;;;;;;5.88;5.13;;;24.50;67.20;;;;;;5015076;28;20469;-65
2021/08/29 07:24:54;;;;;;;5.93;5.32;;;24.50;67.40;;;;;;5014865;28;20032;-65
2021/08/29 07:27:20;;;;;;;8.00;5.22;;;24.60;67.00;;;;;;5014186;28;20018;-65
2021/08/29 07:29:45;;;;;;;6.15;5.55;;;24.60;66.90;;;;;;5014885;28;20084;-65
2021/08/29 07:32:11;;;;;;;5.30;4.75;;;24.70;66.80;;;;;;5014609;28;20121;-65
2021/08/29 07:34:37;;;;;;;5.57;5.00;;;24.70;66.80;;;;;;5014717;28;20026;-65
2021/08/29 07:37:03;;;;;;;6.70;5.68;;;24.70;66.80;;;;;;5030054;28;20030;-65
2021/08/29 07:39:29;;;;;;;5.70;4.97;;;24.70;67.20;;;;;;5034329;28;20040;-65
2021/08/29 07:41:55;;;;;;;6.00;5.35;;;24.70;66.90;;;;;;5032952;28;20474;-65
2021/08/29 07:44:21;;;;;;;6.13;5.07;;;24.80;67.00;;;;;;5014447;28;20486;-65
2021/08/29 07:46:47;;;;;;;5.57;4.93;;;24.80;67.20;;;;;;5014461;28;20101;-65
2021/08/29 07:49:12;;;;;;;5.68;4.75;;;24.80;67.40;;;;;;5014738;28;20045;-65
2021/08/29 07:51:38;;;;;;;5.30;4.80;;;24.80;67.20;;;;;;5020134;28;20033;-65
2021/08/29 07:54:03;;;;;;;5.18;4.60;;;24.80;67.20;;;;;;5034170;28;20104;-65
2021/08/29 07:56:29;;;;;;;6.10;5.13;;;24.80;67.20;;;;;;5033383;28;20028;-65
2021/08/29 07:58:55;;;;;;;5.57;5.00;;;24.90;67.30;;;;;;5022438;28;20400;-65
2021/08/29 08:01:21;;;;;;;5.57;4.88;;;24.90;67.40;;;;;;5014262;28;20045;-65
2021/08/29 08:03:46;;;;;;;6.13;5.35;;;24.90;67.40;;;;;;5013961;28;20496;-65
2021/08/29 08:06:12;;;;;;;5.90;5.28;;;24.90;67.10;;;;;;5014086;28;20097;-65
2021/08/29 08:08:38;;;;;;;6.55;4.88;;;25.00;67.30;;;;;;5014101;28;20022;-65
2021/08/29 08:11:04;;;;;;;6.13;5.22;;;25.00;67.20;;;;;;5014296;28;20021;-65
2021/08/29 08:13:30;;;;;;;5.97;5.32;;;25.00;67.20;;;;;;5013666;28;20033;-65
2021/08/29 08:15:56;;;;;;;5.65;4.60;;;25.00;67.40;;;;;;5013485;28;20101;-65
2021/08/29 08:18:22;;;;;;;5.68;4.85;;;25.00;67.50;;;;;;5013929;28;20394;-65
2021/08/29 08:20:47;;;;;;;5.80;5.20;;;25.00;67.40;;;;;;5013556;28;20022;-65
2021/08/29 08:23:13;;;;;;;5.30;4.80;;;25.00;67.50;;;;;;5013755;28;20025;-65
2021/08/29 08:25:39;;;;;;;6.57;5.32;;;25.00;67.60;;;;;;5013539;28;20030;-65
2021/08/29 08:28:05;;;;;;;5.65;5.03;;;25.00;67.60;;;;;;5030639;28;20254;-65
2021/08/29 08:30:30;;;;;;;5.90;5.30;;;25.00;67.70;;;;;;5033260;28;20026;-65
2021/08/29 08:32:56;;;;;;;6.35;5.45;;;25.00;68.10;;;;;;5022533;28;20436;-65
2021/08/29 08:35:22;;;;;;;6.50;5.50;;;25.10;67.80;;;;;;5013790;28;20034;-65
2021/08/29 08:37:47;;;;;;;6.50;5.55;;;25.00;67.80;;;;;;5013755;28;20022;-65
2021/08/29 08:40:13;;;;;;;6.88;5.18;;;25.10;67.70;;;;;;5013456;28;20029;-65
2021/08/29 08:42:40;;;;;;;7.60;5.75;;;25.10;67.40;;;;;;5012285;28;20057;-65
2021/08/29 08:45:07;;;;;;;6.38;5.72;;;25.10;67.20;;;;;;5013426;28;20137;-65
2021/08/29 08:47:34;;;;;;;6.97;5.80;;;25.10;67.20;;;;;;5013312;28;20477;-65
2021/08/29 08:50:01;;;;;;;7.30;6.20;;;25.10;67.00;;;;;;5013234;28;20021;-65
2021/08/29 08:52:29;;;;;;;6.60;5.78;;;25.10;66.90;;;;;;5026323;28;20021;-65
2021/08/29 08:54:59;;;;;;;6.50;5.78;;;25.10;67.00;;;;;;5032875;28;20063;-65
2021/08/29 08:57:25;;;;;;;6.87;5.60;;;25.10;67.10;;;;;;5032102;28;20053;-65
2021/08/29 08:59:51;;;;;;;6.32;5.25;;;25.10;67.10;;;;;;5032891;28;20431;-65
2021/08/29 09:02:21;;;;;;;7.15;5.32;;;25.20;67.00;;;;;;5013737;28;20057;-65
2021/08/29 09:04:48;;;;;;;6.20;5.60;;;25.20;66.90;;;;;;5011289;28;20018;-65
2021/08/29 09:07:14;;;;;;;5.78;5.18;;;25.20;66.70;;;;;;5011564;28;20409;-65
2021/08/29 09:09:39;;;;;;;7.10;5.82;;;25.20;67.60;;;;;;5011533;28;20061;-65
2021/08/29 09:12:06;;;;;;;6.53;5.80;;;25.30;67.20;;;;;;5013140;28;20105;-65
2021/08/29 09:14:51;;;;;;;6.25;5.18;;;25.30;67.50;;;;;;5013023;28;20108;-65
2021/08/29 09:17:26;;;;;;;5.85;5.25;;;25.30;66.30;;;;;;5013051;28;20084;-65
2021/08/29 09:20:20;;;;;;;7.15;5.40;;;25.40;66.80;;;;;;5013109;28;20058;-65
2021/08/29 09:22:52;;;;;;;6.55;5.82;;;25.40;66.00;;;;;;5013074;28;20026;-65
2021/08/29 09:25:21;;;;;;;6.55;5.15;;;25.40;65.90;;;;;;5013418;28;20474;-65
2021/08/29 09:27:49;;;;;;;6.57;5.68;;;25.40;65.60;;;;;;5029837;28;20092;-65
2021/08/29 09:30:15;;;;;;;6.47;5.10;;;25.40;66.20;;;;;;5022521;28;20026;-65
2021/08/29 09:32:53;;;;;;;5.82;5.22;;;25.40;65.50;;;;;;5012875;28;20049;-65
2021/08/29 09:35:20;;;;;;;6.60;5.50;;;25.50;66.00;;;;;;5013256;28;20037;-65
2021/08/29 09:37:46;;;;;;;6.18;5.50;;;25.50;66.20;;;;;;5013282;28;20535;-65
2021/08/29 09:40:13;;;;;;;7.60;6.28;;;25.50;66.20;;;;;;5012985;28;20034;-65
2021/08/29 09:42:43;;;;;;;7.00;5.88;;;25.60;66.00;;;;;;5012927;28;20026;-65
2021/08/29 09:45:09;;;;;;;7.28;6.07;;;25.60;65.80;;;;;;5012447;28;20080;-65
2021/08/29 09:47:35;;;;;;;7.30;6.60;;;25.60;65.60;;;;;;5012760;28;20485;-65
2021/08/29 09:50:08;;;;;;;7.57;6.65;;;25.60;65.60;;;;;;5013211;28;20029;-65
2021/08/29 09:52:34;;;;;;;6.90;6.07;;;25.60;65.70;;;;;;5026022;28;20048;-65
2021/08/29 09:55:00;;;;;;;6.15;5.55;;;25.60;65.70;;;;;;5032725;28;20041;-65
2021/08/29 09:57:25;;;;;;;7.57;5.72;;;25.70;65.80;;;;;;5031695;28;20385;-65
2021/08/29 09:59:52;;;;;;;6.55;5.85;;;25.70;65.80;;;;;;5034967;28;20029;-65
2021/08/29 10:02:19;;;;;;;5.82;5.22;;;25.70;65.80;;;;;;5022183;28;20037;-65
2021/08/29 10:04:45;;;;;;;6.15;5.55;;;25.70;66.00;;;;;;5016615;28;20029;-65
2021/08/29 10:07:11;;;;;;;6.80;5.80;;;25.80;66.40;;;;;;5016163;28;20037;-65
2021/08/29 10:09:37;;;;;;;6.75;5.60;;;25.80;65.90;;;;;;5016517;28;20022;-65
2021/08/29 10:12:03;;;;;;;6.07;5.38;;;25.80;65.90;;;;;;5016157;28;20503;-65
2021/08/29 10:14:31;;;;;;;6.47;5.38;;;25.80;65.80;;;;;;5015793;28;20053;-65
2021/08/29 10:16:58;;;;;;;7.03;5.97;;;25.90;65.80;;;;;;5000452;28;20036;-65
2021/08/29 10:19:26;;;;;;;7.95;6.25;;;25.90;65.70;;;;;;5016331;28;20438;-65
2021/08/29 10:21:52;;;;;;;5.95;5.30;;;25.90;65.80;;;;;;5016112;28;20022;-65
2021/08/29 10:24:20;;;;;;;6.90;6.20;;;26.00;65.70;;;;;;5015921;28;20037;-65
2021/08/29 10:26:50;;;;;;;7.82;7.00;;;26.00;65.70;;;;;;5016231;28;20057;-65
2021/08/29 10:29:19;;;;;;;9.00;7.15;;;26.00;65.90;;;;;;5016102;28;20025;-65
2021/08/29 10:32:06;;;;;;;8.30;6.90;;;26.10;65.80;;;;;;5015754;28;20069;-65
2021/08/29 10:34:32;;;;;;;7.93;6.60;;;26.20;65.90;;;;;;5015281;28;20025;-65
2021/08/29 10:36:58;;;;;;;6.63;6.03;;;26.20;66.00;;;;;;5016008;28;20117;-65
2021/08/29 10:39:24;;;;;;;6.10;5.47;;;26.30;66.00;;;;;;5015788;28;20065;-65
2021/08/29 10:41:53;;;;;;;6.72;5.97;;;26.30;65.50;;;;;;5015563;28;20033;-65
2021/08/29 10:44:20;;;;;;;6.45;5.85;;;26.30;65.40;;;;;;5015566;28;20022;-65
2021/08/29 10:46:47;;;;;;;10.20;6.15;;;26.30;65.30;;;;;;5033098;28;20032;-65
2021/08/29 10:49:15;;;;;;;7.95;5.10;;;26.30;65.30;;;;;;5024819;28;20037;-65
2021/08/29 10:51:41;;;;;;;6.45;5.80;;;26.40;65.40;;;;;;5022676;28;20381;-65
2021/08/29 10:54:12;;;;;;;6.35;5.72;;;26.40;65.50;;;;;;5035124;28;20021;-65
2021/08/29 10:56:38;;;;;;;6.00;5.22;;;26.40;65.30;;;;;;5035197;28;20377;-65
2021/08/29 10:59:06;;;;;;;7.28;5.90;;;26.40;65.20;;;;;;5035221;28;20037;-65
2021/08/29 11:01:39;;;;;;;6.47;5.72;;;26.50;65.20;;;;;;5035102;28;20025;-65
2021/08/29 11:04:26;;;;;;;7.95;6.45;;;26.50;65.10;;;;;;5032610;28;20058;-65
2021/08/29 11:06:58;;;;;;;6.63;5.93;;;26.50;64.90;;;;;;5015027;28;20105;-65
2021/08/29 11:09:29;;;;;;;6.43;5.80;;;26.50;65.10;;;;;;5015020;28;20022;-65
2021/08/29 11:11:55;;;;;;;7.43;6.05;;;26.50;64.50;;;;;;5013741;28;20030;-65
2021/08/29 11:14:49;;;;;;;6.50;5.85;;;26.50;64.60;;;;;;5015203;28;20034;-65
2021/08/29 11:17:15;;;;;;;7.18;6.28;;;26.50;64.70;;;;;;5015094;28;20040;-65
2021/08/29 11:19:43;;;;;;;6.93;6.22;;;26.50;65.10;;;;;;5014554;28;20473;-65
2021/08/29 11:22:09;;;;;;;6.50;5.80;;;26.50;65.00;;;;;;5014510;28;20493;-65
2021/08/29 11:24:56;;;;;;;7.20;6.25;;;26.50;65.00;;;;;;5014903;28;20073;-65
2021/08/29 11:27:34;;;;;;;6.78;6.07;;;26.60;65.00;;;;;;5014923;28;20026;-65
2021/08/29 11:30:32;;;;;;;7.35;6.03;;;26.60;64.90;;;;;;5014795;28;20080;-65
2021/08/29 11:32:57;;;;;;;7.82;6.40;;;26.60;64.80;;;;;;4995817;28;20042;-65
2021/08/29 11:35:23;;;;;;;7.00;6.30;;;26.60;64.70;;;;;;4995366;28;20076;-65
2021/08/29 11:38:05;;;;;;;8.00;6.35;;;26.60;64.60;;;;;;4994835;28;20026;-65
2021/08/29 11:40:56;;;;;;;7.65;6.32;;;26.60;64.60;;;;;;4995321;28;20088;-65
2021/08/29 11:43:27;;;;;;;7.13;6.03;;;26.60;64.70;;;;;;4994923;28;20027;-65
2021/08/29 11:46:10;;;;;;;7.15;6.22;;;26.60;64.70;;;;;;5007330;28;20053;-65
2021/08/29 11:48:45;;;;;;;7.88;6.13;;;26.60;65.60;;;;;;5014370;28;20050;-65
2021/08/29 11:51:11;;;;;;;7.15;6.45;;;26.60;65.00;;;;;;5012642;28;20113;-65
2021/08/29 11:53:44;;;;;;;7.80;7.00;;;26.60;65.00;;;;;;4994021;28;20121;-65
2021/08/29 11:56:10;;;;;;;9.18;7.00;;;26.60;65.20;;;;;;4995020;28;20378;-65
2021/08/29 11:58:36;;;;;;;7.60;6.80;;;26.60;64.90;;;;;;4994756;28;20031;-65
2021/08/29 12:01:04;;;;;;;8.93;7.07;;;26.60;65.10;;;;;;4994567;28;20026;-65
2021/08/29 12:03:32;;;;;;;7.95;7.15;;;26.60;65.10;;;;;;4994500;28;20027;-65
2021/08/29 12:06:03;;;;;;;8.85;7.85;;;26.70;64.80;;;;;;4993805;28;20066;-65
2021/08/29 12:08:52;;;;;;;8.35;7.53;;;26.80;64.30;;;;;;5002074;28;20018;-65
2021/08/29 12:11:19;;;;;;;8.75;7.85;;;26.90;64.00;;;;;;4993570;28;20030;-65
2021/08/29 12:13:45;;;;;;;9.15;7.50;;;27.00;63.80;;;;;;4993145;28;20031;-65
2021/08/29 12:16:11;;;;;;;9.30;7.25;;;27.10;63.40;;;;;;4991425;28;20022;-66
2021/08/29 12:18:38;;;;;;;8.35;7.43;;;27.20;63.00;;;;;;4993669;28;20034;-65
2021/08/29 12:21:06;;;;;;;8.57;7.68;;;27.30;62.10;;;;;;4993734;28;20033;-65
2021/08/29 12:23:33;;;;;;;10.40;7.90;;;27.40;61.90;;;;;;4992966;28;20030;-65
2021/08/29 12:26:05;;;;;;;8.05;7.25;;;27.40;61.60;;;;;;4993412;28;20022;-65
2021/08/29 12:28:31;;;;;;;8.68;7.78;;;27.40;61.60;;;;;;4992949;28;20441;-65
2021/08/29 12:30:58;;;;;;;9.10;7.18;;;27.40;61.80;;;;;;5001702;28;20129;-65
2021/08/29 12:33:26;;;;;;;8.52;7.63;;;27.40;61.80;;;;;;5013753;28;20485;-65
2021/08/29 12:35:53;;;;;;;7.80;7.00;;;27.40;61.80;;;;;;5011670;28;20054;-65
2021/08/29 12:38:21;;;;;;;8.05;6.93;;;27.50;61.60;;;;;;5012156;28;20120;-65
2021/08/29 12:40:47;;;;;;;9.07;8.18;;;27.40;61.50;;;;;;5010948;28;20377;-65
2021/08/29 12:43:13;;;;;;;8.95;8.05;;;27.50;61.60;;;;;;5012539;28;20014;-65
2021/08/29 12:45:39;;;;;;;9.00;8.10;;;27.50;61.40;;;;;;5010871;28;20029;-65
2021/08/29 12:48:05;;;;;;;8.85;7.80;;;27.50;61.30;;;;;;5012216;28;20018;-65
2021/08/29 12:50:31;;;;;;;9.50;8.02;;;27.50;61.10;;;;;;5011997;28;20010;-65